Hitchcock, South Dakota
Current Conditions -  °F | °C
As of 6:55 AM on Thursday 23 Oct 2014 (Local Time) from KHON Reporting Station
Clear Clear  
Wind Chill: 31°   Ceiling: Unl
Heat Index: 35°   Visibility: 9mi
Dew Point: 34°   Wind: 5mph
Humidity: 96%   Direction: 110°ESE
Pressure: 29.98"   Gusts: NA
Location:  44.63°N, 98.41°W
Report Text: KHON 231155Z AUTO 11004KT 9SM CLR 02/01 A2998 RMK AO2 SLP160 70008 T00170011 10078 20017 51004
Loading
Personal Weather Stations






























Interactive Weather Map
Tropical Storm Tracking
New forecast layout! Learn more

10-Day Weather Forecast

Advertisements
Track Severe Weather on mobile